Time;durP1;ratioP1;P1;durP2;ratioP2;P2;SDS_P1;SDS_P2;PMS_P1;PMS_P2;Temp;Humidity;BMP_temperature;BMP_pressure;BME280_temperature;BME280_humidity;BME280_pressure;Samples;Min_cycle;Max_cycle;Signal;HPM_P1;HPM_P2
2021/09/11 00:02:22;;;;;;;19.40;16.55;;;20.50;99.90;;;;;;5030899;28;20116;-68
2021/09/11 00:04:49;;;;;;;22.15;17.48;;;20.50;99.90;;;;;;5032276;28;20522;-68
2021/09/11 00:07:15;;;;;;;22.73;16.98;;;20.50;99.90;;;;;;5043011;28;20041;-67
2021/09/11 00:09:40;;;;;;;19.05;15.85;;;20.40;99.90;;;;;;5047492;28;20508;-68
2021/09/11 00:12:07;;;;;;;23.27;16.35;;;20.40;99.90;;;;;;5034703;28;20075;-68
2021/09/11 00:14:32;;;;;;;19.85;16.38;;;20.40;99.90;;;;;;5031521;28;20064;-68
2021/09/11 00:16:58;;;;;;;22.55;17.17;;;20.40;99.90;;;;;;5032539;28;20124;-68
2021/09/11 00:19:23;;;;;;;23.20;17.48;;;20.40;99.90;;;;;;5032067;28;20493;-69
2021/09/11 00:21:49;;;;;;;19.02;16.40;;;20.40;99.90;;;;;;5044225;28;20021;-68
2021/09/11 00:24:14;;;;;;;20.33;16.58;;;20.40;99.90;;;;;;5032404;28;20037;-68
2021/09/11 00:26:40;;;;;;;19.85;15.68;;;20.30;99.90;;;;;;5036230;28;20017;-69
2021/09/11 00:29:06;;;;;;;18.40;15.35;;;20.40;99.90;;;;;;5033491;28;20580;-69
2021/09/11 00:31:32;;;;;;;18.15;15.63;;;20.30;99.90;;;;;;5030783;28;20108;-69
2021/09/11 00:33:57;;;;;;;23.50;17.85;;;20.30;99.90;;;;;;5016711;28;20041;-69
2021/09/11 00:36:22;;;;;;;19.65;17.20;;;20.30;99.90;;;;;;5021896;28;20036;-69
2021/09/11 00:38:48;;;;;;;22.73;16.42;;;20.30;99.90;;;;;;5031015;28;20041;-68
2021/09/11 00:41:13;;;;;;;23.23;16.95;;;20.30;99.90;;;;;;5039115;28;20040;-69
2021/09/11 00:43:47;;;;;;;25.02;16.48;;;20.30;99.90;;;;;;5033812;28;20076;-68
2021/09/11 00:46:13;;;;;;;20.30;16.33;;;20.20;99.90;;;;;;5037448;28;20029;-68
2021/09/11 00:48:39;;;;;;;19.40;15.50;;;20.20;99.90;;;;;;5032652;28;20474;-67
2021/09/11 00:51:05;;;;;;;19.20;15.20;;;20.20;99.90;;;;;;5038115;28;20115;-67
2021/09/11 00:53:31;;;;;;;18.23;15.15;;;20.20;99.90;;;;;;5035634;28;20120;-67
2021/09/11 00:55:57;;;;;;;19.40;15.90;;;20.20;99.90;;;;;;5030278;28;20440;-68
2021/09/11 00:58:23;;;;;;;25.30;16.42;;;20.20;99.90;;;;;;5029758;28;20035;-68
2021/09/11 01:00:48;;;;;;;20.45;15.45;;;20.10;99.90;;;;;;5035514;28;20033;-68
2021/09/11 01:03:14;;;;;;;18.50;14.75;;;20.10;99.90;;;;;;5038577;28;20026;-68
2021/09/11 01:05:40;;;;;;;22.38;15.70;;;20.10;99.90;;;;;;5030749;28;20036;-68
2021/09/11 01:08:05;;;;;;;19.67;15.85;;;20.20;99.90;;;;;;5046211;28;20030;-68
2021/09/11 01:10:31;;;;;;;18.05;15.25;;;20.20;99.90;;;;;;5033091;28;20082;-68
2021/09/11 01:12:59;;;;;;;19.10;15.65;;;20.20;99.90;;;;;;5034063;28;20104;-68
2021/09/11 01:15:33;;;;;;;18.67;14.93;;;20.20;99.90;;;;;;5051581;28;20037;-68
2021/09/11 01:17:58;;;;;;;23.77;17.40;;;20.20;99.90;;;;;;5033169;28;20044;-68
2021/09/11 01:20:24;;;;;;;19.60;16.88;;;20.20;99.90;;;;;;5029690;28;20042;-68
2021/09/11 01:22:49;;;;;;;17.63;14.13;;;20.20;99.90;;;;;;5030536;28;20032;-68
2021/09/11 01:25:15;;;;;;;17.02;14.65;;;20.30;99.90;;;;;;5055216;28;20021;-68
2021/09/11 01:27:40;;;;;;;18.73;16.52;;;20.30;99.90;;;;;;5047910;28;20142;-68
2021/09/11 01:30:17;;;;;;;18.38;14.52;;;20.30;99.90;;;;;;5055070;28;20084;-68
2021/09/11 01:32:43;;;;;;;16.75;14.45;;;20.30;99.90;;;;;;5043234;28;20029;-68
2021/09/11 01:35:09;;;;;;;20.60;17.05;;;20.30;99.90;;;;;;5035118;28;20545;-68
2021/09/11 01:37:35;;;;;;;18.17;15.57;;;20.30;99.90;;;;;;5033353;28;20028;-69
2021/09/11 01:40:01;;;;;;;17.40;14.98;;;20.30;99.90;;;;;;5055011;28;20381;-68
2021/09/11 01:42:28;;;;;;;17.00;14.52;;;20.30;99.90;;;;;;5036925;28;20389;-68
2021/09/11 01:44:59;;;;;;;19.45;16.55;;;20.30;99.90;;;;;;5033567;28;20017;-68
2021/09/11 01:47:25;;;;;;;16.67;14.82;;;20.30;99.90;;;;;;5033410;28;20060;-68
2021/09/11 01:49:51;;;;;;;19.73;14.45;;;20.30;99.90;;;;;;5034806;28;20513;-68
2021/09/11 01:52:16;;;;;;;18.15;15.52;;;20.30;99.90;;;;;;5033032;28;20026;-69
2021/09/11 01:54:42;;;;;;;18.98;15.52;;;20.30;99.90;;;;;;5050988;28;20140;-69
2021/09/11 01:57:10;;;;;;;17.65;15.50;;;20.30;99.90;;;;;;5033721;28;20409;-69
2021/09/11 01:59:35;;;;;;;19.63;16.35;;;20.30;99.90;;;;;;5033552;28;20104;-69
2021/09/11 02:02:03;;;;;;;18.17;15.00;;;20.30;99.90;;;;;;5034101;28;20105;-69
2021/09/11 02:04:29;;;;;;;19.98;15.70;;;20.30;99.90;;;;;;5053308;28;20401;-69
2021/09/11 02:06:54;;;;;;;17.02;15.23;;;20.20;99.90;;;;;;5033909;28;20033;-69
2021/09/11 02:09:20;;;;;;;18.73;15.27;;;20.20;99.90;;;;;;5049993;28;20040;-68
2021/09/11 02:11:45;;;;;;;16.60;14.27;;;20.20;99.90;;;;;;5035256;28;20055;-68
2021/09/11 02:14:11;;;;;;;16.90;14.05;;;20.20;99.90;;;;;;5051185;28;20416;-69
2021/09/11 02:16:36;;;;;;;18.45;16.35;;;20.20;99.90;;;;;;5022097;28;20029;-69
2021/09/11 02:19:02;;;;;;;17.55;15.23;;;20.20;99.90;;;;;;5046357;28;20089;-69
2021/09/11 02:21:28;;;;;;;16.73;14.70;;;20.20;99.90;;;;;;5037630;28;20041;-69
2021/09/11 02:23:54;;;;;;;16.73;14.25;;;20.20;99.90;;;;;;5032670;28;20136;-69
2021/09/11 02:26:20;;;;;;;19.25;16.05;;;20.20;99.90;;;;;;5033248;28;20596;-69
2021/09/11 02:28:45;;;;;;;17.52;15.27;;;20.10;99.90;;;;;;5033124;28;20037;-69
2021/09/11 02:31:11;;;;;;;18.70;16.08;;;20.10;99.90;;;;;;5033370;28;20120;-69
2021/09/11 02:33:38;;;;;;;18.58;14.27;;;20.10;99.90;;;;;;5044440;28;20386;-68
2021/09/11 02:36:04;;;;;;;19.27;16.13;;;20.10;99.90;;;;;;5043383;28;20030;-68
2021/09/11 02:38:30;;;;;;;18.65;14.57;;;20.10;99.90;;;;;;5043704;28;20112;-68
2021/09/11 02:40:55;;;;;;;17.75;15.50;;;20.10;99.90;;;;;;5043193;28;20159;-68
2021/09/11 02:43:21;;;;;;;17.05;14.63;;;20.10;99.90;;;;;;5040893;28;20474;-68
2021/09/11 02:45:46;;;;;;;18.20;14.50;;;20.10;99.90;;;;;;5032994;28;20022;-68
2021/09/11 02:48:12;;;;;;;18.83;16.08;;;20.10;99.90;;;;;;5039200;28;20401;-68
2021/09/11 02:50:37;;;;;;;17.23;15.25;;;20.10;99.90;;;;;;5048420;28;20521;-70
2021/09/11 02:53:03;;;;;;;17.60;14.75;;;20.10;99.90;;;;;;5031955;28;20496;-69
2021/09/11 02:55:28;;;;;;;18.95;15.43;;;20.10;99.90;;;;;;5033053;28;20119;-69
2021/09/11 02:57:54;;;;;;;20.60;15.10;;;20.10;99.90;;;;;;5037630;28;20458;-69
2021/09/11 03:00:19;;;;;;;15.60;13.85;;;20.10;99.90;;;;;;5034632;28;20041;-69
2021/09/11 03:02:46;;;;;;;16.13;14.35;;;20.00;99.90;;;;;;5038431;28;20026;-69
2021/09/11 03:05:11;;;;;;;16.40;14.55;;;20.00;99.90;;;;;;5032837;28;20033;-69
2021/09/11 03:07:37;;;;;;;20.23;15.23;;;20.00;99.90;;;;;;5023707;28;20529;-70
2021/09/11 03:10:03;;;;;;;20.05;16.00;;;20.00;99.90;;;;;;5032701;28;20069;-69
2021/09/11 03:12:28;;;;;;;20.30;16.33;;;20.00;99.90;;;;;;5041740;28;20034;-69
2021/09/11 03:14:53;;;;;;;18.05;15.50;;;20.00;99.90;;;;;;5051380;28;20032;-69
2021/09/11 03:17:19;;;;;;;18.80;15.07;;;19.90;99.90;;;;;;5031200;28;20975;-69
2021/09/11 03:19:44;;;;;;;18.50;15.52;;;19.90;99.90;;;;;;5032935;28;20032;-69
2021/09/11 03:22:10;;;;;;;19.98;15.30;;;19.90;99.90;;;;;;5031884;28;20032;-69
2021/09/11 03:24:35;;;;;;;18.88;15.57;;;19.90;99.90;;;;;;5045972;28;20382;-69
2021/09/11 03:27:01;;;;;;;16.35;14.65;;;20.00;99.90;;;;;;5032331;28;20079;-69
2021/09/11 03:29:26;;;;;;;16.02;14.23;;;20.00;99.90;;;;;;5046628;28;20554;-69
2021/09/11 03:31:52;;;;;;;21.95;15.50;;;20.00;99.90;;;;;;5031382;28;20030;-69
2021/09/11 03:34:17;;;;;;;18.58;15.68;;;19.90;99.90;;;;;;5031371;28;20045;-69
2021/09/11 03:36:43;;;;;;;16.55;14.75;;;20.00;99.90;;;;;;5031081;28;20027;-69
2021/09/11 03:39:08;;;;;;;18.40;15.27;;;19.90;99.90;;;;;;5036511;28;20025;-69
2021/09/11 03:41:34;;;;;;;15.82;13.75;;;20.00;99.90;;;;;;5031587;28;20120;-69
2021/09/11 03:43:59;;;;;;;17.88;13.77;;;20.00;99.90;;;;;;5031687;28;20076;-69
2021/09/11 03:46:25;;;;;;;17.25;14.50;;;20.00;99.90;;;;;;5032081;28;20470;-69
2021/09/11 03:48:50;;;;;;;19.48;15.00;;;20.00;99.90;;;;;;5031794;28;20438;-69
2021/09/11 03:51:16;;;;;;;17.45;14.77;;;19.90;99.90;;;;;;5031732;28;20017;-69
2021/09/11 03:53:41;;;;;;;16.95;14.73;;;19.90;99.90;;;;;;5031561;28;20457;-69
2021/09/11 03:56:07;;;;;;;19.48;15.18;;;19.90;99.90;;;;;;5029977;28;20045;-69
2021/09/11 03:58:33;;;;;;;22.20;16.25;;;19.90;99.90;;;;;;5042659;28;20029;-69
2021/09/11 04:01:01;;;;;;;19.42;16.50;;;19.90;99.90;;;;;;5038991;28;20083;-69
2021/09/11 04:03:27;;;;;;;16.70;14.55;;;19.90;99.90;;;;;;5031584;28;20115;-68
2021/09/11 04:05:52;;;;;;;20.08;14.65;;;19.90;99.90;;;;;;5031074;28;20474;-69
2021/09/11 04:08:18;;;;;;;19.58;14.93;;;19.80;99.90;;;;;;5039037;28;20045;-68
2021/09/11 04:10:43;;;;;;;18.23;15.00;;;19.90;99.90;;;;;;5030273;28;20029;-68
2021/09/11 04:13:09;;;;;;;19.08;15.05;;;19.80;99.90;;;;;;5031331;28;20032;-68
2021/09/11 04:15:34;;;;;;;17.33;14.18;;;19.80;99.90;;;;;;5030885;28;20390;-67
2021/09/11 04:18:00;;;;;;;17.88;13.43;;;19.80;99.90;;;;;;5037958;28;20051;-68
2021/09/11 04:20:25;;;;;;;17.40;14.38;;;19.80;99.90;;;;;;5045279;28;20037;-68
2021/09/11 04:22:51;;;;;;;17.50;14.43;;;19.80;99.90;;;;;;5031389;28;20036;-69
2021/09/11 04:25:16;;;;;;;18.33;14.98;;;19.80;99.90;;;;;;5030830;28;20037;-68
2021/09/11 04:27:42;;;;;;;17.17;15.00;;;19.80;99.90;;;;;;5034567;28;20465;-69
2021/09/11 04:30:07;;;;;;;17.83;14.52;;;19.80;99.90;;;;;;5048436;28;20044;-69
2021/09/11 04:32:33;;;;;;;20.40;15.35;;;19.90;99.90;;;;;;5033973;28;20036;-69
2021/09/11 04:34:58;;;;;;;22.10;16.17;;;19.90;99.90;;;;;;5050285;28;20029;-69
2021/09/11 04:37:24;;;;;;;19.83;15.55;;;19.90;99.90;;;;;;5029306;28;20100;-69
2021/09/11 04:39:49;;;;;;;18.88;15.25;;;19.90;99.90;;;;;;5031322;28;20044;-70
2021/09/11 04:42:15;;;;;;;17.50;14.23;;;19.90;99.90;;;;;;5029944;28;20025;-69
2021/09/11 04:44:40;;;;;;;19.98;14.93;;;19.90;99.90;;;;;;5051536;28;20151;-69
2021/09/11 04:47:06;;;;;;;18.33;14.65;;;20.00;99.90;;;;;;5032984;28;20057;-70
2021/09/11 04:49:31;;;;;;;17.17;14.73;;;20.00;99.90;;;;;;5030833;28;20028;-70
2021/09/11 04:51:57;;;;;;;18.00;15.43;;;20.00;99.90;;;;;;5031387;28;20018;-70
2021/09/11 04:54:22;;;;;;;19.42;15.00;;;20.00;99.90;;;;;;5048668;28;20139;-70
2021/09/11 04:56:48;;;;;;;16.45;14.30;;;20.00;99.90;;;;;;5030910;28;20057;-66
2021/09/11 04:59:13;;;;;;;21.25;15.85;;;20.00;99.90;;;;;;5029472;28;20021;-68
2021/09/11 05:01:39;;;;;;;17.85;15.70;;;20.00;99.90;;;;;;5031241;28;20029;-69
2021/09/11 05:04:04;;;;;;;17.60;14.98;;;20.10;99.90;;;;;;5032865;28;20160;-68
2021/09/11 05:06:30;;;;;;;19.65;14.88;;;20.00;99.90;;;;;;5031531;28;20384;-69
2021/09/11 05:08:55;;;;;;;19.38;15.02;;;20.10;99.90;;;;;;5030266;28;20041;-68
2021/09/11 05:11:21;;;;;;;19.60;14.88;;;20.10;99.90;;;;;;5026756;28;20026;-69
2021/09/11 05:13:47;;;;;;;17.40;14.73;;;20.10;99.90;;;;;;5033267;28;20538;-69
2021/09/11 05:16:12;;;;;;;20.67;15.52;;;20.20;99.90;;;;;;5041218;28;20037;-68
2021/09/11 05:18:38;;;;;;;18.38;15.00;;;20.20;99.90;;;;;;5024772;28;20022;-69
2021/09/11 05:21:05;;;;;;;17.85;15.30;;;20.20;99.90;;;;;;5011934;28;20026;-69
2021/09/11 05:23:31;;;;;;;17.13;14.77;;;20.20;99.90;;;;;;5040473;28;20033;-69
2021/09/11 05:25:57;;;;;;;17.67;14.55;;;20.30;99.90;;;;;;5050762;28;20108;-69
2021/09/11 05:28:23;;;;;;;16.77;14.20;;;20.40;99.90;;;;;;5030455;28;20104;-69
2021/09/11 05:30:48;;;;;;;19.13;14.48;;;20.40;99.90;;;;;;5017227;28;20037;-68
2021/09/11 05:33:13;;;;;;;18.90;14.73;;;20.40;99.90;;;;;;5023181;28;20029;-69
2021/09/11 05:35:39;;;;;;;18.00;14.70;;;20.50;99.90;;;;;;5030247;28;20075;-69
2021/09/11 05:38:05;;;;;;;18.90;14.55;;;20.50;99.90;;;;;;5035995;28;20028;-69
2021/09/11 05:40:30;;;;;;;17.38;14.23;;;20.60;99.90;;;;;;5036341;28;20544;-69
2021/09/11 05:42:55;;;;;;;18.80;15.30;;;20.60;99.90;;;;;;5036211;28;20021;-68
2021/09/11 05:45:21;;;;;;;19.02;15.25;;;20.70;99.90;;;;;;5038967;28;20029;-68
2021/09/11 05:47:46;;;;;;;19.67;15.05;;;20.70;99.90;;;;;;5029942;28;20018;-69
2021/09/11 05:50:13;;;;;;;18.05;14.65;;;20.80;99.90;;;;;;5030687;28;20116;-68
2021/09/11 05:52:38;;;;;;;18.63;14.70;;;20.80;99.90;;;;;;5030104;28;20033;-68
2021/09/11 05:55:04;;;;;;;18.15;14.93;;;20.90;99.90;;;;;;5030580;28;20448;-68
2021/09/11 05:57:30;;;;;;;17.52;14.90;;;20.90;99.90;;;;;;5029723;28;20466;-68
2021/09/11 05:59:56;;;;;;;16.52;14.55;;;21.00;99.90;;;;;;5033489;28;20398;-68
2021/09/11 06:02:23;;;;;;;15.32;12.88;;;21.00;99.90;;;;;;5034103;28;20029;-68
2021/09/11 06:04:49;;;;;;;15.73;13.55;;;21.10;99.90;;;;;;5034259;28;20037;-69
2021/09/11 06:07:14;;;;;;;16.50;12.95;;;21.10;99.90;;;;;;5032539;28;20083;-67
2021/09/11 06:09:40;;;;;;;19.88;14.40;;;21.10;99.90;;;;;;5033058;28;20041;-67
2021/09/11 06:12:10;;;;;;;17.17;14.95;;;21.10;99.90;;;;;;5033224;28;20117;-67
2021/09/11 06:14:35;;;;;;;17.55;15.18;;;21.10;99.90;;;;;;5036770;28;20037;-69
2021/09/11 06:17:01;;;;;;;16.52;13.75;;;21.20;99.90;;;;;;5046682;28;20040;-69
2021/09/11 06:19:26;;;;;;;17.25;14.63;;;21.20;99.90;;;;;;5031082;28;20032;-69
2021/09/11 06:21:52;;;;;;;16.60;14.05;;;21.20;99.90;;;;;;5033166;28;20025;-69
2021/09/11 06:24:17;;;;;;;19.13;14.02;;;21.20;99.90;;;;;;5035506;28;20745;-68
2021/09/11 06:26:43;;;;;;;16.85;14.10;;;21.20;99.90;;;;;;5033149;28;20033;-68
2021/09/11 06:29:08;;;;;;;16.50;13.00;;;21.30;99.90;;;;;;5037908;28;20045;-68
2021/09/11 06:31:34;;;;;;;19.52;14.18;;;21.30;99.90;;;;;;5034646;28;20104;-70
2021/09/11 06:33:59;;;;;;;17.52;14.45;;;21.30;99.90;;;;;;5050418;28;20412;-71
2021/09/11 06:36:25;;;;;;;16.02;13.90;;;21.40;99.90;;;;;;5031696;28;20058;-70
2021/09/11 06:38:50;;;;;;;16.80;13.40;;;21.40;99.90;;;;;;5032591;28;20437;-70
2021/09/11 06:41:16;;;;;;;15.13;13.15;;;21.50;99.90;;;;;;5025919;28;20029;-68
2021/09/11 06:43:41;;;;;;;15.65;13.18;;;21.50;99.90;;;;;;5045408;28;20381;-68
2021/09/11 06:46:07;;;;;;;14.40;12.68;;;21.50;99.90;;;;;;5048835;28;20045;-68
2021/09/11 06:48:33;;;;;;;16.65;13.75;;;21.60;99.90;;;;;;5036505;28;20393;-68
2021/09/11 06:50:58;;;;;;;18.40;14.48;;;21.70;99.90;;;;;;5033506;28;20135;-68
2021/09/11 06:53:24;;;;;;;16.60;13.93;;;21.70;99.90;;;;;;5033679;28;20517;-68
2021/09/11 06:55:50;;;;;;;18.02;14.15;;;21.70;99.90;;;;;;5032884;28;20057;-68
2021/09/11 06:58:16;;;;;;;16.55;13.27;;;21.80;99.90;;;;;;5031859;28;20060;-68
2021/09/11 07:00:41;;;;;;;15.73;12.30;;;21.80;99.90;;;;;;5033028;28;20060;-68
2021/09/11 07:03:07;;;;;;;17.75;13.35;;;21.90;99.90;;;;;;5030683;28;20083;-68
2021/09/11 07:05:33;;;;;;;17.80;14.65;;;21.90;99.90;;;;;;5040096;28;20029;-68
2021/09/11 07:07:58;;;;;;;15.77;13.35;;;22.00;99.90;;;;;;5031279;28;20033;-68
2021/09/11 07:10:24;;;;;;;17.33;13.88;;;22.00;99.90;;;;;;5032075;28;20033;-69
2021/09/11 07:12:49;;;;;;;16.98;14.60;;;22.10;99.90;;;;;;5033542;28;20549;-68
2021/09/11 07:15:15;;;;;;;18.08;13.80;;;22.10;99.90;;;;;;5038301;28;20057;-67
2021/09/11 07:17:40;;;;;;;16.52;13.80;;;22.20;99.90;;;;;;5031831;28;20089;-68
2021/09/11 07:20:07;;;;;;;15.77;13.18;;;22.30;99.90;;;;;;5046289;28;20484;-67
2021/09/11 07:22:33;;;;;;;16.20;14.02;;;22.30;99.90;;;;;;5040566;28;20433;-69
2021/09/11 07:24:58;;;;;;;16.75;14.45;;;22.40;99.90;;;;;;5030222;28;20126;-68
2021/09/11 07:27:24;;;;;;;16.02;13.63;;;22.50;99.90;;;;;;5032802;28;20030;-68
2021/09/11 07:29:49;;;;;;;17.52;14.48;;;22.50;99.90;;;;;;5040155;28;20033;-68
2021/09/11 07:32:15;;;;;;;15.82;12.82;;;22.50;99.90;;;;;;5028934;28;20181;-68
2021/09/11 07:34:41;;;;;;;14.95;13.13;;;22.60;99.90;;;;;;5029714;28;20639;-67
2021/09/11 07:37:06;;;;;;;15.45;12.95;;;22.60;99.90;;;;;;5036256;28;20025;-67
2021/09/11 07:39:32;;;;;;;14.80;12.73;;;22.60;99.90;;;;;;5045780;28;20386;-68
2021/09/11 07:41:57;;;;;;;17.42;12.88;;;22.70;99.90;;;;;;5025471;28;20112;-68
2021/09/11 07:44:23;;;;;;;16.00;14.27;;;22.70;99.90;;;;;;5031583;28;20033;-69
2021/09/11 07:46:48;;;;;;;14.85;13.07;;;22.70;99.90;;;;;;5043769;28;20374;-68
2021/09/11 07:49:14;;;;;;;16.70;12.98;;;22.70;99.90;;;;;;5040755;28;20037;-69
2021/09/11 07:51:39;;;;;;;16.50;12.35;;;22.70;99.90;;;;;;5039451;28;20021;-70
2021/09/11 07:54:05;;;;;;;16.88;13.70;;;22.70;99.90;;;;;;5035945;28;20117;-70
2021/09/11 07:56:30;;;;;;;15.38;13.70;;;22.70;99.90;;;;;;5036949;28;20061;-70
2021/09/11 07:58:56;;;;;;;15.10;12.25;;;22.70;99.90;;;;;;5033268;28;20029;-70
2021/09/11 08:01:21;;;;;;;17.13;13.20;;;22.70;99.90;;;;;;5030869;28;20033;-70
2021/09/11 08:03:47;;;;;;;17.63;14.20;;;22.70;99.90;;;;;;5032152;28;20068;-70
2021/09/11 08:06:12;;;;;;;19.52;13.70;;;22.70;99.90;;;;;;5032238;28;20485;-68
2021/09/11 08:08:39;;;;;;;17.98;15.32;;;22.80;99.90;;;;;;5036408;28;20047;-70
2021/09/11 08:11:08;;;;;;;18.17;14.57;;;22.80;99.90;;;;;;5028522;28;20048;-68
2021/09/11 08:13:35;;;;;;;17.17;13.57;;;22.80;99.90;;;;;;5029508;28;20030;-69
2021/09/11 08:16:01;;;;;;;15.48;12.93;;;22.90;99.90;;;;;;5038510;28;20049;-69
2021/09/11 08:18:26;;;;;;;15.80;13.73;;;23.00;99.90;;;;;;5039054;28;20458;-68
2021/09/11 08:20:52;;;;;;;16.30;13.15;;;23.10;99.90;;;;;;5036594;28;20116;-69
2021/09/11 08:23:18;;;;;;;14.85;12.57;;;23.20;99.90;;;;;;5032886;28;20025;-69
2021/09/11 08:25:45;;;;;;;21.58;13.65;;;23.30;99.90;;;;;;5042282;28;20036;-69
2021/09/11 08:28:12;;;;;;;16.13;13.90;;;23.40;99.90;;;;;;5035219;28;20037;-69
2021/09/11 08:30:38;;;;;;;19.25;12.98;;;23.50;99.90;;;;;;5030190;28;20029;-69
2021/09/11 08:33:04;;;;;;;16.48;12.65;;;23.60;99.90;;;;;;5037010;28;20033;-69
2021/09/11 08:35:29;;;;;;;15.63;12.90;;;23.60;99.90;;;;;;5043229;28;20048;-69
2021/09/11 08:37:55;;;;;;;16.70;12.05;;;23.70;99.90;;;;;;5036086;28;20114;-69
2021/09/11 08:40:21;;;;;;;14.73;12.65;;;23.70;99.90;;;;;;5028794;28;20049;-69
2021/09/11 08:42:48;;;;;;;15.98;12.55;;;23.70;99.80;;;;;;5027401;28;20552;-68
2021/09/11 08:45:15;;;;;;;14.02;12.10;;;23.70;99.80;;;;;;5035683;28;20051;-68
2021/09/11 08:47:45;;;;;;;13.63;11.75;;;23.70;99.70;;;;;;5027316;28;20025;-68
2021/09/11 08:50:17;;;;;;;16.08;11.88;;;23.80;99.70;;;;;;5036087;28;20041;-68
2021/09/11 08:52:48;;;;;;;15.60;11.60;;;23.90;99.70;;;;;;5028783;28;20021;-68
2021/09/11 08:55:15;;;;;;;11.85;10.00;;;24.00;99.70;;;;;;5031756;28;20049;-71
2021/09/11 08:58:05;;;;;;;13.52;11.13;;;24.10;99.30;;;;;;5036081;28;20022;-73
2021/09/11 09:00:49;;;;;;;12.52;10.18;;;24.20;98.90;;;;;;5030531;28;20041;-73
2021/09/11 09:03:42;;;;;;;13.13;8.98;;;24.30;98.70;;;;;;5033093;28;20030;-73
2021/09/11 09:06:22;;;;;;;8.73;7.80;;;24.40;98.50;;;;;;5025366;28;20382;-73
2021/09/11 09:08:51;;;;;;;10.50;8.90;;;24.50;97.70;;;;;;5030550;28;20127;-73
2021/09/11 09:11:26;;;;;;;11.70;10.02;;;24.50;97.50;;;;;;5033874;28;20366;-73
2021/09/11 09:13:57;;;;;;;12.05;8.20;;;24.50;97.50;;;;;;5038399;28;20043;-73
2021/09/11 09:16:24;;;;;;;10.77;9.65;;;24.60;97.40;;;;;;5035604;28;20034;-73
2021/09/11 09:18:50;;;;;;;9.95;7.65;;;24.70;97.40;;;;;;5033211;28;20548;-74
2021/09/11 09:21:24;;;;;;;9.48;7.32;;;24.70;97.30;;;;;;5038641;28;20030;-73
2021/09/11 09:23:59;;;;;;;11.50;8.40;;;24.80;96.60;;;;;;5028986;28;20037;-73
2021/09/11 09:26:26;;;;;;;11.52;7.80;;;24.80;96.90;;;;;;5031923;28;20112;-73
2021/09/11 09:29:09;;;;;;;13.35;7.85;;;24.90;96.80;;;;;;5036523;28;20044;-73
2021/09/11 09:31:35;;;;;;;12.77;8.35;;;24.90;96.70;;;;;;5032432;28;20486;-73
2021/09/11 09:34:01;;;;;;;12.15;8.20;;;24.80;96.60;;;;;;5036153;28;20040;-75
2021/09/11 09:36:38;;;;;;;10.88;8.68;;;24.80;96.30;;;;;;5040292;28;20091;-78
2021/09/11 09:39:11;;;;;;;9.38;7.47;;;24.80;96.30;;;;;;5037637;28;20037;-76
2021/09/11 09:41:46;;;;;;;11.45;8.48;;;24.90;96.80;;;;;;5024385;28;20030;-75
2021/09/11 09:44:13;;;;;;;10.95;8.18;;;25.00;96.60;;;;;;5041819;28;20033;-77
2021/09/11 09:46:41;;;;;;;11.35;8.52;;;25.00;96.60;;;;;;5037071;28;20040;-75
2021/09/11 09:49:07;;;;;;;12.45;8.73;;;25.10;96.60;;;;;;5034096;28;20505;-75
2021/09/11 09:51:33;;;;;;;6.97;5.97;;;25.10;96.40;;;;;;5045741;28;20060;-75
2021/09/11 09:54:00;;;;;;;11.88;7.20;;;25.10;95.90;;;;;;5041916;28;20028;-76
2021/09/11 09:56:27;;;;;;;8.45;6.43;;;25.10;96.00;;;;;;5036366;28;20111;-77
2021/09/11 09:58:54;;;;;;;9.00;7.03;;;25.20;95.80;;;;;;5032982;28;20032;-76
2021/09/11 10:01:21;;;;;;;8.10;6.47;;;25.20;95.60;;;;;;5046017;28;20021;-79
2021/09/11 10:03:47;;;;;;;9.02;6.40;;;25.10;95.60;;;;;;5031141;28;20053;-77
2021/09/11 10:06:18;;;;;;;7.30;5.72;;;25.10;95.90;;;;;;5039418;28;20030;-76
2021/09/11 10:08:47;;;;;;;8.25;6.03;;;25.10;95.40;;;;;;5021535;28;20066;-77
2021/09/11 10:11:12;;;;;;;8.20;5.80;;;25.10;95.30;;;;;;5043347;28;20481;-77
2021/09/11 10:13:38;;;;;;;6.28;5.30;;;25.10;95.30;;;;;;5028572;28;20040;-75
2021/09/11 10:16:08;;;;;;;6.75;4.78;;;25.10;95.00;;;;;;5029259;28;20072;-76
2021/09/11 10:18:33;;;;;;;8.68;5.35;;;25.10;95.10;;;;;;5030000;28;20040;-76
2021/09/11 10:21:12;;;;;;;6.05;4.70;;;25.20;94.90;;;;;;5030537;28;20021;-75
2021/09/11 10:23:38;;;;;;;6.65;5.65;;;25.20;95.00;;;;;;5034421;28;20041;-75
2021/09/11 10:26:03;;;;;;;7.55;5.90;;;25.20;94.90;;;;;;5030132;28;20029;-75
2021/09/11 10:28:29;;;;;;;7.22;5.63;;;25.20;94.80;;;;;;5034953;28;20397;-76
2021/09/11 10:31:02;;;;;;;6.32;5.10;;;25.20;94.90;;;;;;5039969;28;20028;-74
2021/09/11 10:33:46;;;;;;;18.38;6.07;;;25.30;94.40;;;;;;5028372;28;20079;-79
2021/09/11 10:36:17;;;;;;;;;;;25.30;94.40;;;;;;5051366;28;20037;-78
2021/09/11 10:38:43;;;;;;;8.07;5.97;;;25.30;94.20;;;;;;5040729;28;19909;-73
2021/09/11 10:41:14;;;;;;;8.25;5.47;;;25.30;94.70;;;;;;5030594;28;20029;-73
2021/09/11 10:44:05;;;;;;;5.88;5.00;;;25.30;94.40;;;;;;5035187;28;20936;-73
2021/09/11 10:46:48;;;;;;;10.30;5.82;;;25.40;94.20;;;;;;5033209;28;20029;-76
2021/09/11 10:49:31;;;;;;;25.98;6.00;;;25.50;93.60;;;;;;5026824;28;20041;-74
2021/09/11 10:52:05;;;;;;;7.50;4.60;;;25.50;93.70;;;;;;5031779;28;20381;-74
2021/09/11 10:54:37;;;;;;;;;;;25.50;93.90;;;;;;5038476;28;20107;-73
2021/09/11 10:57:14;;;;;;;6.03;4.88;;;25.50;93.30;;;;;;5049005;28;19919;-74
2021/09/11 10:59:44;;;;;;;6.28;5.60;;;25.50;93.90;;;;;;5034560;28;20017;-76
2021/09/11 11:02:30;;;;;;;5.85;4.40;;;25.50;94.10;;;;;;5030535;28;20049;-75
2021/09/11 11:04:57;;;;;;;7.15;5.30;;;25.60;93.60;;;;;;5013072;28;20037;-76
2021/09/11 11:07:26;;;;;;;5.85;5.05;;;25.70;93.70;;;;;;5024989;28;20034;-75
2021/09/11 11:10:19;;;;;;;6.90;4.68;;;25.80;94.00;;;;;;5030839;28;20053;-75
2021/09/11 11:12:48;;;;;;;5.13;4.22;;;25.80;93.50;;;;;;5035995;28;20410;-74
2021/09/11 11:15:27;;;;;;;5.95;5.13;;;25.80;93.40;;;;;;5034426;28;20067;-75
2021/09/11 11:17:53;;;;;;;6.60;5.18;;;25.80;93.20;;;;;;5030577;28;20037;-74
2021/09/11 11:20:24;;;;;;;4.93;4.07;;;25.70;93.40;;;;;;5016182;28;20037;-74
2021/09/11 11:22:49;;;;;;;6.15;4.28;;;25.70;93.30;;;;;;5029136;28;20178;-74
2021/09/11 11:25:31;;;;;;;4.88;4.22;;;25.80;93.20;;;;;;5030514;28;20022;-75
2021/09/11 11:27:57;;;;;;;5.25;4.43;;;25.70;92.80;;;;;;5036889;28;20028;-74
2021/09/11 11:30:23;;;;;;;5.75;3.72;;;25.70;92.50;;;;;;5052328;28;20037;-72
2021/09/11 11:32:49;;;;;;;6.47;5.05;;;25.70;92.90;;;;;;5027680;28;20694;-73
2021/09/11 11:35:14;;;;;;;6.22;4.60;;;25.70;93.00;;;;;;5034994;28;20565;-74
2021/09/11 11:37:41;;;;;;;6.40;4.43;;;25.70;92.90;;;;;;5041031;28;20022;-72
2021/09/11 11:40:12;;;;;;;7.88;4.65;;;25.70;93.00;;;;;;5026433;28;20026;-70
2021/09/11 11:42:39;;;;;;;6.80;4.78;;;25.70;92.80;;;;;;5031900;28;20124;-74
2021/09/11 11:45:07;;;;;;;4.90;4.40;;;25.70;92.80;;;;;;5030911;28;20044;-72
2021/09/11 11:47:55;;;;;;;5.57;4.85;;;25.60;92.80;;;;;;5041177;28;20040;-72
2021/09/11 11:50:23;;;;;;;6.18;4.90;;;25.60;92.70;;;;;;5023763;28;20034;-72
2021/09/11 11:52:56;;;;;;;6.32;4.50;;;25.60;92.70;;;;;;5021396;28;20280;-72
2021/09/11 11:55:22;;;;;;;6.30;4.45;;;25.50;92.60;;;;;;5039046;28;20053;-72
2021/09/11 11:57:48;;;;;;;5.22;4.43;;;25.50;92.70;;;;;;5039376;28;20037;-77
2021/09/11 12:00:16;;;;;;;6.82;4.43;;;25.60;92.60;;;;;;5042009;28;20397;-76
2021/09/11 12:02:47;;;;;;;8.43;4.82;;;25.70;92.80;;;;;;5037835;28;20533;-76
2021/09/11 12:05:14;;;;;;;5.28;4.50;;;25.80;92.50;;;;;;5039117;28;20026;-75
2021/09/11 12:07:39;;;;;;;7.10;4.45;;;25.80;92.20;;;;;;5029655;28;20036;-78
2021/09/11 12:10:13;;;;;;;6.78;5.65;;;25.80;92.40;;;;;;5043617;28;20029;-74
2021/09/11 12:12:53;;;;;;;7.50;5.35;;;25.80;92.20;;;;;;5027637;28;20026;-75
2021/09/11 12:15:22;;;;;;;6.40;4.60;;;25.70;92.30;;;;;;5040683;28;20033;-74
2021/09/11 12:18:03;;;;;;;5.15;4.28;;;25.60;91.70;;;;;;5025161;28;20091;-76
2021/09/11 12:20:30;;;;;;;5.18;4.25;;;25.60;92.10;;;;;;5029060;28;20034;-76
2021/09/11 12:23:09;;;;;;;5.05;4.30;;;25.60;92.20;;;;;;5032142;28;20156;-77
2021/09/11 12:25:55;;;;;;;4.72;4.22;;;25.70;92.00;;;;;;5036140;28;20021;-75
2021/09/11 12:28:44;;;;;;;4.75;4.00;;;25.80;91.90;;;;;;5033123;28;20034;-74
2021/09/11 12:31:20;;;;;;;4.90;3.83;;;25.90;91.60;;;;;;5022205;28;20166;-74
2021/09/11 12:33:50;;;;;;;3.83;3.20;;;26.00;91.70;;;;;;5026896;28;20056;-74
2021/09/11 12:36:28;;;;;;;5.13;3.80;;;26.10;91.30;;;;;;5030065;28;20104;-75